sensor_id;sensor_type;location;lat;lon;timestamp;temperature;humidity
19652;DHT22;9974;52.146;14.668;2022-08-01T00:00:14;20.90;99.90
19652;DHT22;9974;52.146;14.668;2022-08-01T00:05:07;20.70;99.90
19652;DHT22;9974;52.146;14.668;2022-08-01T00:07:34;20.80;99.90
19652;DHT22;9974;52.146;14.668;2022-08-01T00:12:26;20.80;99.90
19652;DHT22;9974;52.146;14.668;2022-08-01T00:17:18;20.80;99.90
19652;DHT22;9974;52.146;14.668;2022-08-01T00:24:35;21.20;99.90
19652;DHT22;9974;52.146;14.668;2022-08-01T00:29:27;20.70;99.90
19652;DHT22;9974;52.146;14.668;2022-08-01T00:31:53;20.90;99.90
19652;DHT22;9974;52.146;14.668;2022-08-01T00:44:04;20.30;99.90
19652;DHT22;9974;52.146;14.668;2022-08-01T00:46:31;21.20;99.90
19652;DHT22;9974;52.146;14.668;2022-08-01T00:48:57;20.90;99.90
19652;DHT22;9974;52.146;14.668;2022-08-01T00:51:24;20.50;99.90
19652;DHT22;9974;52.146;14.668;2022-08-01T00:53:50;20.50;99.90
19652;DHT22;9974;52.146;14.668;2022-08-01T00:56:17;20.40;99.90
19652;DHT22;9974;52.146;14.668;2022-08-01T00:58:43;20.50;99.90
19652;DHT22;9974;52.146;14.668;2022-08-01T01:01:09;20.70;99.90
19652;DHT22;9974;52.146;14.668;2022-08-01T01:09:20;20.50;99.90
19652;DHT22;9974;52.146;14.668;2022-08-01T01:12:09;20.80;99.90
19652;DHT22;9974;52.146;14.668;2022-08-01T01:17:12;21.10;99.90
19652;DHT22;9974;52.146;14.668;2022-08-01T01:19:45;20.70;99.90
19652;DHT22;9974;52.146;14.668;2022-08-01T01:31:09;20.50;99.90
19652;DHT22;9974;52.146;14.668;2022-08-01T01:33:37;20.60;99.90
19652;DHT22;9974;52.146;14.668;2022-08-01T01:36:08;20.80;99.90
19652;DHT22;9974;52.146;14.668;2022-08-01T01:38:41;20.50;99.90
19652;DHT22;9974;52.146;14.668;2022-08-01T01:41:11;20.80;99.90
19652;DHT22;9974;52.146;14.668;2022-08-01T01:43:39;21.10;99.90
19652;DHT22;9974;52.146;14.668;2022-08-01T01:46:06;20.80;99.90
19652;DHT22;9974;52.146;14.668;2022-08-01T01:48:34;21.00;99.90
19652;DHT22;9974;52.146;14.668;2022-08-01T01:51:01;20.90;99.90
19652;DHT22;9974;52.146;14.668;2022-08-01T01:53:28;20.80;99.90
19652;DHT22;9974;52.146;14.668;2022-08-01T01:55:58;20.90;99.90
19652;DHT22;9974;52.146;14.668;2022-08-01T01:58:26;21.10;99.90
19652;DHT22;9974;52.146;14.668;2022-08-01T02:00:55;21.10;99.90
19652;DHT22;9974;52.146;14.668;2022-08-01T02:03:23;21.20;99.90
19652;DHT22;9974;52.146;14.668;2022-08-01T02:05:53;21.10;99.90
19652;DHT22;9974;52.146;14.668;2022-08-01T02:08:20;21.10;99.90
19652;DHT22;9974;52.146;14.668;2022-08-01T02:10:50;21.20;99.90
19652;DHT22;9974;52.146;14.668;2022-08-01T02:13:38;21.00;99.90
19652;DHT22;9974;52.146;14.668;2022-08-01T02:16:05;21.20;99.90
19652;DHT22;9974;52.146;14.668;2022-08-01T02:18:33;21.40;99.90
19652;DHT22;9974;52.146;14.668;2022-08-01T02:21:00;21.00;99.90
19652;DHT22;9974;52.146;14.668;2022-08-01T02:23:32;21.20;99.90
19652;DHT22;9974;52.146;14.668;2022-08-01T02:26:00;21.20;99.90
19652;DHT22;9974;52.146;14.668;2022-08-01T02:28:31;20.90;99.90
19652;DHT22;9974;52.146;14.668;2022-08-01T02:31:02;21.30;99.90
19652;DHT22;9974;52.146;14.668;2022-08-01T02:33:43;21.20;99.90
19652;DHT22;9974;52.146;14.668;2022-08-01T02:36:11;21.20;99.90
19652;DHT22;9974;52.146;14.668;2022-08-01T02:38:40;21.20;99.90
19652;DHT22;9974;52.146;14.668;2022-08-01T02:41:11;21.50;99.90
19652;DHT22;9974;52.146;14.668;2022-08-01T02:43:43;21.20;99.90
19652;DHT22;9974;52.146;14.668;2022-08-01T02:46:22;21.50;99.90
19652;DHT22;9974;52.146;14.668;2022-08-01T02:48:53;21.00;99.90
19652;DHT22;9974;52.146;14.668;2022-08-01T02:51:23;21.20;99.90
19652;DHT22;9974;52.146;14.668;2022-08-01T02:53:50;21.00;99.90
19652;DHT22;9974;52.146;14.668;2022-08-01T02:56:18;21.40;99.90
19652;DHT22;9974;52.146;14.668;2022-08-01T02:58:44;21.00;99.90
19652;DHT22;9974;52.146;14.668;2022-08-01T03:01:12;21.20;99.90
19652;DHT22;9974;52.146;14.668;2022-08-01T03:03:39;21.10;99.90
19652;DHT22;9974;52.146;14.668;2022-08-01T03:06:05;21.30;99.90
19652;DHT22;9974;52.146;14.668;2022-08-01T03:08:33;21.30;99.90
19652;DHT22;9974;52.146;14.668;2022-08-01T03:11:01;20.90;99.90
19652;DHT22;9974;52.146;14.668;2022-08-01T03:13:28;20.80;99.90
19652;DHT22;9974;52.146;14.668;2022-08-01T03:15:56;21.00;99.90
19652;DHT22;9974;52.146;14.668;2022-08-01T03:18:24;21.10;99.90
19652;DHT22;9974;52.146;14.668;2022-08-01T03:20:52;20.90;99.90
19652;DHT22;9974;52.146;14.668;2022-08-01T03:23:20;21.20;99.90
19652;DHT22;9974;52.146;14.668;2022-08-01T03:25:49;20.90;99.90
19652;DHT22;9974;52.146;14.668;2022-08-01T03:28:16;20.80;99.90
19652;DHT22;9974;52.146;14.668;2022-08-01T03:30:44;20.80;99.90
19652;DHT22;9974;52.146;14.668;2022-08-01T03:33:10;21.20;99.90
19652;DHT22;9974;52.146;14.668;2022-08-01T03:35:39;21.00;99.90
19652;DHT22;9974;52.146;14.668;2022-08-01T03:38:10;21.00;99.90
19652;DHT22;9974;52.146;14.668;2022-08-01T03:40:49;21.10;99.90
19652;DHT22;9974;52.146;14.668;2022-08-01T03:43:24;21.20;99.90
19652;DHT22;9974;52.146;14.668;2022-08-01T03:46:01;20.90;99.90
19652;DHT22;9974;52.146;14.668;2022-08-01T03:48:35;20.90;99.90
19652;DHT22;9974;52.146;14.668;2022-08-01T03:51:03;20.80;99.90
19652;DHT22;9974;52.146;14.668;2022-08-01T03:53:30;20.90;99.90
19652;DHT22;9974;52.146;14.668;2022-08-01T03:56:00;21.30;99.90
19652;DHT22;9974;52.146;14.668;2022-08-01T03:58:29;21.00;99.90
19652;DHT22;9974;52.146;14.668;2022-08-01T04:00:55;20.80;99.90
19652;DHT22;9974;52.146;14.668;2022-08-01T04:03:23;21.00;99.90
19652;DHT22;9974;52.146;14.668;2022-08-01T04:05:49;20.60;99.90
19652;DHT22;9974;52.146;14.668;2022-08-01T04:08:15;20.80;99.90
19652;DHT22;9974;52.146;14.668;2022-08-01T04:15:34;20.80;99.90
19652;DHT22;9974;52.146;14.668;2022-08-01T04:25:27;20.60;99.90
19652;DHT22;9974;52.146;14.668;2022-08-01T04:28:00;20.50;99.90
19652;DHT22;9974;52.146;14.668;2022-08-01T04:30:31;20.40;99.90
19652;DHT22;9974;52.146;14.668;2022-08-01T04:33:01;20.40;99.90
19652;DHT22;9974;52.146;14.668;2022-08-01T04:35:28;20.80;99.90
19652;DHT22;9974;52.146;14.668;2022-08-01T04:37:55;20.60;99.90
19652;DHT22;9974;52.146;14.668;2022-08-01T04:40:22;20.90;99.90
19652;DHT22;9974;52.146;14.668;2022-08-01T04:42:48;20.60;99.90
19652;DHT22;9974;52.146;14.668;2022-08-01T04:45:16;21.20;99.90
19652;DHT22;9974;52.146;14.668;2022-08-01T04:47:42;20.90;99.90
19652;DHT22;9974;52.146;14.668;2022-08-01T04:50:09;20.50;99.90
19652;DHT22;9974;52.146;14.668;2022-08-01T04:52:36;20.70;99.90
19652;DHT22;9974;52.146;14.668;2022-08-01T04:55:04;20.20;99.90
19652;DHT22;9974;52.146;14.668;2022-08-01T04:57:39;20.40;99.90
19652;DHT22;9974;52.146;14.668;2022-08-01T05:00:07;20.60;99.90
19652;DHT22;9974;52.146;14.668;2022-08-01T05:02:34;20.40;99.90
19652;DHT22;9974;52.146;14.668;2022-08-01T05:09:51;20.80;99.90
19652;DHT22;9974;52.146;14.668;2022-08-01T05:12:17;21.00;99.90
19652;DHT22;9974;52.146;14.668;2022-08-01T05:14:43;20.80;99.90
19652;DHT22;9974;52.146;14.668;2022-08-01T05:17:10;20.90;99.90
19652;DHT22;9974;52.146;14.668;2022-08-01T05:19:37;20.90;99.90
19652;DHT22;9974;52.146;14.668;2022-08-01T05:22:06;20.70;99.90
19652;DHT22;9974;52.146;14.668;2022-08-01T05:24:36;21.00;99.90
19652;DHT22;9974;52.146;14.668;2022-08-01T05:27:05;21.10;99.90
19652;DHT22;9974;52.146;14.668;2022-08-01T05:29:31;21.40;99.90
19652;DHT22;9974;52.146;14.668;2022-08-01T05:31:57;21.40;99.90
19652;DHT22;9974;52.146;14.668;2022-08-01T05:34:24;21.60;99.90
19652;DHT22;9974;52.146;14.668;2022-08-01T05:46:35;21.60;99.90
19652;DHT22;9974;52.146;14.668;2022-08-01T05:49:03;21.50;99.90
19652;DHT22;9974;52.146;14.668;2022-08-01T05:51:29;21.30;99.90
19652;DHT22;9974;52.146;14.668;2022-08-01T05:53:55;21.40;99.90
19652;DHT22;9974;52.146;14.668;2022-08-01T05:56:21;21.60;99.90
19652;DHT22;9974;52.146;14.668;2022-08-01T05:58:47;21.50;99.90
19652;DHT22;9974;52.146;14.668;2022-08-01T06:01:14;21.50;99.90
19652;DHT22;9974;52.146;14.668;2022-08-01T06:13:24;22.40;99.90
19652;DHT22;9974;52.146;14.668;2022-08-01T06:18:16;21.60;99.90
19652;DHT22;9974;52.146;14.668;2022-08-01T06:23:08;21.60;99.90
19652;DHT22;9974;52.146;14.668;2022-08-01T06:28:00;21.90;99.90
19652;DHT22;9974;52.146;14.668;2022-08-01T06:30:27;21.80;99.90
19652;DHT22;9974;52.146;14.668;2022-08-01T06:32:53;21.90;99.90
19652;DHT22;9974;52.146;14.668;2022-08-01T06:37:47;22.10;99.90
19652;DHT22;9974;52.146;14.668;2022-08-01T06:40:14;22.70;99.90
19652;DHT22;9974;52.146;14.668;2022-08-01T06:42:40;22.30;99.90
19652;DHT22;9974;52.146;14.668;2022-08-01T06:45:07;22.30;99.90
19652;DHT22;9974;52.146;14.668;2022-08-01T06:47:34;22.00;99.90
19652;DHT22;9974;52.146;14.668;2022-08-01T07:02:11;22.30;99.90
19652;DHT22;9974;52.146;14.668;2022-08-01T07:04:37;22.10;99.90
19652;DHT22;9974;52.146;14.668;2022-08-01T07:14:22;22.50;99.90
19652;DHT22;9974;52.146;14.668;2022-08-01T07:16:48;22.70;99.90
19652;DHT22;9974;52.146;14.668;2022-08-01T07:24:08;23.00;99.90
19652;DHT22;9974;52.146;14.668;2022-08-01T07:29:01;23.00;99.90
19652;DHT22;9974;52.146;14.668;2022-08-01T07:31:28;23.30;99.90
19652;DHT22;9974;52.146;14.668;2022-08-01T07:38:46;23.30;99.90
19652;DHT22;9974;52.146;14.668;2022-08-01T07:41:13;23.40;99.90
19652;DHT22;9974;52.146;14.668;2022-08-01T07:43:39;23.90;99.90
19652;DHT22;9974;52.146;14.668;2022-08-01T07:46:05;23.40;99.90
19652;DHT22;9974;52.146;14.668;2022-08-01T07:48:31;23.50;99.90
19652;DHT22;9974;52.146;14.668;2022-08-01T07:58:15;23.10;99.90
19652;DHT22;9974;52.146;14.668;2022-08-01T08:00:42;23.10;99.90
19652;DHT22;9974;52.146;14.668;2022-08-01T08:05:34;23.10;99.90
19652;DHT22;9974;52.146;14.668;2022-08-01T08:08:05;23.20;99.90
19652;DHT22;9974;52.146;14.668;2022-08-01T08:12:57;23.30;99.90
19652;DHT22;9974;52.146;14.668;2022-08-01T08:20:15;23.30;99.90
19652;DHT22;9974;52.146;14.668;2022-08-01T08:22:41;23.70;99.90
19652;DHT22;9974;52.146;14.668;2022-08-01T08:25:07;23.40;99.90
19652;DHT22;9974;52.146;14.668;2022-08-01T08:27:34;23.70;99.90
19652;DHT22;9974;52.146;14.668;2022-08-01T08:44:41;24.00;99.90
19652;DHT22;9974;52.146;14.668;2022-08-01T08:49:33;24.50;99.90
19652;DHT22;9974;52.146;14.668;2022-08-01T08:52:01;24.80;99.90
19652;DHT22;9974;52.146;14.668;2022-08-01T08:54:29;24.60;99.90
19652;DHT22;9974;52.146;14.668;2022-08-01T08:56:56;25.20;99.90
19652;DHT22;9974;52.146;14.668;2022-08-01T09:11:37;25.40;99.90
19652;DHT22;9974;52.146;14.668;2022-08-01T09:14:10;25.40;99.90
19652;DHT22;9974;52.146;14.668;2022-08-01T09:16:44;25.40;99.90
19652;DHT22;9974;52.146;14.668;2022-08-01T09:19:19;25.30;99.90
19652;DHT22;9974;52.146;14.668;2022-08-01T09:22:00;25.30;99.90
19652;DHT22;9974;52.146;14.668;2022-08-01T09:24:29;25.20;99.90
19652;DHT22;9974;52.146;14.668;2022-08-01T09:26:56;25.10;99.90
19652;DHT22;9974;52.146;14.668;2022-08-01T09:29:29;25.10;99.90
19652;DHT22;9974;52.146;14.668;2022-08-01T09:31:55;25.30;99.90
19652;DHT22;9974;52.146;14.668;2022-08-01T09:34:27;25.20;99.90
19652;DHT22;9974;52.146;14.668;2022-08-01T09:37:00;25.30;99.90
19652;DHT22;9974;52.146;14.668;2022-08-01T09:39:29;25.10;99.90
19652;DHT22;9974;52.146;14.668;2022-08-01T09:41:59;25.40;99.90
19652;DHT22;9974;52.146;14.668;2022-08-01T09:44:39;25.20;99.90
19652;DHT22;9974;52.146;14.668;2022-08-01T09:47:06;25.20;99.90
19652;DHT22;9974;52.146;14.668;2022-08-01T09:49:34;25.30;99.90
19652;DHT22;9974;52.146;14.668;2022-08-01T09:52:17;25.30;99.90
19652;DHT22;9974;52.146;14.668;2022-08-01T09:54:58;25.20;99.90
19652;DHT22;9974;52.146;14.668;2022-08-01T09:57:28;25.00;99.90
19652;DHT22;9974;52.146;14.668;2022-08-01T09:59:56;24.90;99.90
19652;DHT22;9974;52.146;14.668;2022-08-01T10:02:35;25.00;99.90
19652;DHT22;9974;52.146;14.668;2022-08-01T10:05:07;25.00;99.90
19652;DHT22;9974;52.146;14.668;2022-08-01T10:07:36;25.00;99.90
19652;DHT22;9974;52.146;14.668;2022-08-01T10:10:15;25.00;99.90
19652;DHT22;9974;52.146;14.668;2022-08-01T10:12:42;25.30;99.90
19652;DHT22;9974;52.146;14.668;2022-08-01T10:15:08;25.60;99.90
19652;DHT22;9974;52.146;14.668;2022-08-01T10:17:34;25.80;99.90
19652;DHT22;9974;52.146;14.668;2022-08-01T10:20:04;26.20;99.90
19652;DHT22;9974;52.146;14.668;2022-08-01T10:22:31;26.00;99.90
19652;DHT22;9974;52.146;14.668;2022-08-01T10:25:02;25.80;99.90
19652;DHT22;9974;52.146;14.668;2022-08-01T10:27:32;25.70;99.90
19652;DHT22;9974;52.146;14.668;2022-08-01T10:30:03;25.60;99.90
19652;DHT22;9974;52.146;14.668;2022-08-01T10:32:31;25.50;99.90
19652;DHT22;9974;52.146;14.668;2022-08-01T10:34:58;25.60;99.90
19652;DHT22;9974;52.146;14.668;2022-08-01T10:39:51;25.40;99.90
19652;DHT22;9974;52.146;14.668;2022-08-01T10:42:18;25.50;99.90
19652;DHT22;9974;52.146;14.668;2022-08-01T10:44:44;25.60;99.90
19652;DHT22;9974;52.146;14.668;2022-08-01T10:47:18;25.50;99.90
19652;DHT22;9974;52.146;14.668;2022-08-01T10:49:56;25.60;99.90
19652;DHT22;9974;52.146;14.668;2022-08-01T10:52:26;25.40;99.90
19652;DHT22;9974;52.146;14.668;2022-08-01T10:55:06;25.30;99.90
19652;DHT22;9974;52.146;14.668;2022-08-01T10:57:46;25.10;99.90
19652;DHT22;9974;52.146;14.668;2022-08-01T11:00:20;25.20;99.90
19652;DHT22;9974;52.146;14.668;2022-08-01T11:03:00;25.10;99.90
19652;DHT22;9974;52.146;14.668;2022-08-01T11:05:31;24.90;99.90
19652;DHT22;9974;52.146;14.668;2022-08-01T11:08:09;24.90;99.90
19652;DHT22;9974;52.146;14.668;2022-08-01T11:10:42;24.80;99.90
19652;DHT22;9974;52.146;14.668;2022-08-01T11:13:08;25.10;99.90
19652;DHT22;9974;52.146;14.668;2022-08-01T11:15:39;24.50;99.90
19652;DHT22;9974;52.146;14.668;2022-08-01T11:18:28;24.30;99.90
19652;DHT22;9974;52.146;14.668;2022-08-01T11:21:00;24.00;99.90
19652;DHT22;9974;52.146;14.668;2022-08-01T11:23:28;23.50;99.90
19652;DHT22;9974;52.146;14.668;2022-08-01T11:28:23;23.30;99.90
19652;DHT22;9974;52.146;14.668;2022-08-01T11:30:53;22.90;99.90
19652;DHT22;9974;52.146;14.668;2022-08-01T11:41:16;22.10;99.90
19652;DHT22;9974;52.146;14.668;2022-08-01T11:44:01;22.00;99.90
19652;DHT22;9974;52.146;14.668;2022-08-01T11:46:49;21.70;99.90
19652;DHT22;9974;52.146;14.668;2022-08-01T11:54:50;20.70;99.90
19652;DHT22;9974;52.146;14.668;2022-08-01T11:57:28;20.70;99.90
19652;DHT22;9974;52.146;14.668;2022-08-01T11:59:58;20.30;99.90
19652;DHT22;9974;52.146;14.668;2022-08-01T12:02:26;20.20;99.90
19652;DHT22;9974;52.146;14.668;2022-08-01T12:04:56;19.80;99.90
19652;DHT22;9974;52.146;14.668;2022-08-01T12:07:25;19.80;99.90
19652;DHT22;9974;52.146;14.668;2022-08-01T12:12:27;20.10;99.90
19652;DHT22;9974;52.146;14.668;2022-08-01T12:14:55;19.90;99.90
19652;DHT22;9974;52.146;14.668;2022-08-01T12:17:49;20.10;99.90
19652;DHT22;9974;52.146;14.668;2022-08-01T12:20:19;20.10;99.90
19652;DHT22;9974;52.146;14.668;2022-08-01T12:22:46;19.70;99.90
19652;DHT22;9974;52.146;14.668;2022-08-01T12:25:14;20.00;99.90
19652;DHT22;9974;52.146;14.668;2022-08-01T12:27:42;20.60;99.90
19652;DHT22;9974;52.146;14.668;2022-08-01T12:30:12;20.40;99.90
19652;DHT22;9974;52.146;14.668;2022-08-01T12:32:44;20.60;99.90
19652;DHT22;9974;52.146;14.668;2022-08-01T12:35:17;20.80;99.90
19652;DHT22;9974;52.146;14.668;2022-08-01T12:37:49;20.90;99.90
19652;DHT22;9974;52.146;14.668;2022-08-01T12:40:18;21.10;99.90
19652;DHT22;9974;52.146;14.668;2022-08-01T12:42:46;21.00;99.90
19652;DHT22;9974;52.146;14.668;2022-08-01T12:45:16;21.00;99.90
19652;DHT22;9974;52.146;14.668;2022-08-01T12:47:44;21.20;99.90
19652;DHT22;9974;52.146;14.668;2022-08-01T12:50:15;21.50;99.90
19652;DHT22;9974;52.146;14.668;2022-08-01T12:52:42;22.20;99.90
19652;DHT22;9974;52.146;14.668;2022-08-01T12:55:19;21.80;99.90
19652;DHT22;9974;52.146;14.668;2022-08-01T12:57:48;22.00;99.90
19652;DHT22;9974;52.146;14.668;2022-08-01T13:00:26;22.00;99.90
19652;DHT22;9974;52.146;14.668;2022-08-01T13:03:09;22.00;99.90
19652;DHT22;9974;52.146;14.668;2022-08-01T13:05:49;22.40;99.90
19652;DHT22;9974;52.146;14.668;2022-08-01T13:10:50;22.00;99.90
19652;DHT22;9974;52.146;14.668;2022-08-01T13:13:19;21.70;99.90
19652;DHT22;9974;52.146;14.668;2022-08-01T13:18:29;22.00;99.90
19652;DHT22;9974;52.146;14.668;2022-08-01T13:21:12;22.00;99.90
19652;DHT22;9974;52.146;14.668;2022-08-01T13:24:05;22.00;99.90
19652;DHT22;9974;52.146;14.668;2022-08-01T13:26:51;22.20;99.90
19652;DHT22;9974;52.146;14.668;2022-08-01T13:29:28;22.40;99.90
19652;DHT22;9974;52.146;14.668;2022-08-01T13:31:59;22.40;99.90
19652;DHT22;9974;52.146;14.668;2022-08-01T13:34:38;22.50;99.90
19652;DHT22;9974;52.146;14.668;2022-08-01T13:37:03;22.60;99.90
19652;DHT22;9974;52.146;14.668;2022-08-01T13:44:32;23.10;99.90
19652;DHT22;9974;52.146;14.668;2022-08-01T13:49:24;23.30;99.90
19652;DHT22;9974;52.146;14.668;2022-08-01T14:01:35;24.00;99.90
19652;DHT22;9974;52.146;14.668;2022-08-01T14:04:01;24.00;99.90
19652;DHT22;9974;52.146;14.668;2022-08-01T14:06:27;24.50;99.90
19652;DHT22;9974;52.146;14.668;2022-08-01T14:08:53;23.80;99.90
19652;DHT22;9974;52.146;14.668;2022-08-01T14:25:55;23.80;99.90
19652;DHT22;9974;52.146;14.668;2022-08-01T14:33:15;23.90;99.90
19652;DHT22;9974;52.146;14.668;2022-08-01T14:38:07;23.50;99.90
19652;DHT22;9974;52.146;14.668;2022-08-01T14:55:12;25.30;99.90
19652;DHT22;9974;52.146;14.668;2022-08-01T14:57:39;23.50;99.90
19652;DHT22;9974;52.146;14.668;2022-08-01T15:00:07;23.40;99.90
19652;DHT22;9974;52.146;14.668;2022-08-01T15:05:04;23.20;99.90
19652;DHT22;9974;52.146;14.668;2022-08-01T15:14:49;23.30;99.90
19652;DHT22;9974;52.146;14.668;2022-08-01T15:17:27;23.40;99.90
19652;DHT22;9974;52.146;14.668;2022-08-01T15:19:55;23.40;99.90
19652;DHT22;9974;52.146;14.668;2022-08-01T15:22:24;23.40;99.90
19652;DHT22;9974;52.146;14.668;2022-08-01T15:24:52;23.50;99.90
19652;DHT22;9974;52.146;14.668;2022-08-01T15:29:46;23.50;99.90
19652;DHT22;9974;52.146;14.668;2022-08-01T15:37:06;23.40;99.90
19652;DHT22;9974;52.146;14.668;2022-08-01T15:39:33;23.40;99.90
19652;DHT22;9974;52.146;14.668;2022-08-01T15:42:03;23.50;99.90
19652;DHT22;9974;52.146;14.668;2022-08-01T15:51:49;23.90;99.90
19652;DHT22;9974;52.146;14.668;2022-08-01T15:56:42;23.40;99.90
19652;DHT22;9974;52.146;14.668;2022-08-01T15:59:08;23.60;99.90
19652;DHT22;9974;52.146;14.668;2022-08-01T16:01:34;23.40;99.90
19652;DHT22;9974;52.146;14.668;2022-08-01T16:04:00;23.30;99.90
19652;DHT22;9974;52.146;14.668;2022-08-01T16:06:26;23.50;99.90
19652;DHT22;9974;52.146;14.668;2022-08-01T16:08:52;23.50;99.90
19652;DHT22;9974;52.146;14.668;2022-08-01T16:13:44;23.20;99.90
19652;DHT22;9974;52.146;14.668;2022-08-01T16:40:44;22.90;99.90
19652;DHT22;9974;52.146;14.668;2022-08-01T16:48:07;23.00;99.90
19652;DHT22;9974;52.146;14.668;2022-08-01T17:05:12;23.00;99.90
19652;DHT22;9974;52.146;14.668;2022-08-01T17:10:05;22.90;99.90
19652;DHT22;9974;52.146;14.668;2022-08-01T17:17:24;23.00;99.90
19652;DHT22;9974;52.146;14.668;2022-08-01T17:19:51;22.80;99.90
19652;DHT22;9974;52.146;14.668;2022-08-01T17:27:09;22.50;99.90
19652;DHT22;9974;52.146;14.668;2022-08-01T17:29:35;22.80;99.90
19652;DHT22;9974;52.146;14.668;2022-08-01T17:49:04;22.20;99.90
19652;DHT22;9974;52.146;14.668;2022-08-01T17:51:30;22.20;99.90
19652;DHT22;9974;52.146;14.668;2022-08-01T17:53:56;22.30;99.90
19652;DHT22;9974;52.146;14.668;2022-08-01T18:01:17;22.30;99.90
19652;DHT22;9974;52.146;14.668;2022-08-01T18:03:43;22.30;99.90
19652;DHT22;9974;52.146;14.668;2022-08-01T18:06:10;22.40;99.90
19652;DHT22;9974;52.146;14.668;2022-08-01T18:08:41;22.10;99.90
19652;DHT22;9974;52.146;14.668;2022-08-01T18:20:52;22.00;99.90
19652;DHT22;9974;52.146;14.668;2022-08-01T18:37:55;22.00;99.90
19652;DHT22;9974;52.146;14.668;2022-08-01T18:40:21;21.60;99.90
19652;DHT22;9974;52.146;14.668;2022-08-01T18:42:47;22.00;99.90
19652;DHT22;9974;52.146;14.668;2022-08-01T19:26:57;20.60;99.90
19652;DHT22;9974;52.146;14.668;2022-08-01T19:29:29;20.50;99.90
19652;DHT22;9974;52.146;14.668;2022-08-01T19:31:57;20.40;99.90
19652;DHT22;9974;52.146;14.668;2022-08-01T19:36:54;20.40;99.90
19652;DHT22;9974;52.146;14.668;2022-08-01T19:39:23;20.30;99.90
19652;DHT22;9974;52.146;14.668;2022-08-01T19:41:52;20.30;99.90
19652;DHT22;9974;52.146;14.668;2022-08-01T19:44:21;20.20;99.90
19652;DHT22;9974;52.146;14.668;2022-08-01T19:46:48;20.40;99.90
19652;DHT22;9974;52.146;14.668;2022-08-01T19:49:18;20.10;99.90
19652;DHT22;9974;52.146;14.668;2022-08-01T19:51:54;20.10;99.90
19652;DHT22;9974;52.146;14.668;2022-08-01T19:54:26;20.10;99.90
19652;DHT22;9974;52.146;14.668;2022-08-01T19:56:59;20.20;99.90
19652;DHT22;9974;52.146;14.668;2022-08-01T20:06:46;19.80;99.90
19652;DHT22;9974;52.146;14.668;2022-08-01T20:11:46;20.00;99.90
19652;DHT22;9974;52.146;14.668;2022-08-01T20:14:18;20.00;99.90
19652;DHT22;9974;52.146;14.668;2022-08-01T20:19:15;19.70;99.90
19652;DHT22;9974;52.146;14.668;2022-08-01T20:21:45;20.10;99.90
19652;DHT22;9974;52.146;14.668;2022-08-01T20:24:16;19.90;99.90
19652;DHT22;9974;52.146;14.668;2022-08-01T20:26:44;19.80;99.90
19652;DHT22;9974;52.146;14.668;2022-08-01T20:34:09;19.90;99.90
19652;DHT22;9974;52.146;14.668;2022-08-01T20:39:02;19.80;99.90
19652;DHT22;9974;52.146;14.668;2022-08-01T20:43:56;19.80;99.90
19652;DHT22;9974;52.146;14.668;2022-08-01T20:46:23;19.50;99.90
19652;DHT22;9974;52.146;14.668;2022-08-01T20:48:53;19.80;99.90
19652;DHT22;9974;52.146;14.668;2022-08-01T20:51:22;19.90;99.90
19652;DHT22;9974;52.146;14.668;2022-08-01T20:56:44;19.50;99.90
19652;DHT22;9974;52.146;14.668;2022-08-01T21:02:14;19.50;99.90
19652;DHT22;9974;52.146;14.668;2022-08-01T21:04:56;19.30;99.90
19652;DHT22;9974;52.146;14.668;2022-08-01T21:10:20;19.60;99.90
19652;DHT22;9974;52.146;14.668;2022-08-01T21:13:06;19.00;99.90
19652;DHT22;9974;52.146;14.668;2022-08-01T21:15:41;19.30;99.90
19652;DHT22;9974;52.146;14.668;2022-08-01T21:18:13;19.20;99.90
19652;DHT22;9974;52.146;14.668;2022-08-01T21:20:58;19.00;99.90
19652;DHT22;9974;52.146;14.668;2022-08-01T21:23:38;19.10;99.90
19652;DHT22;9974;52.146;14.668;2022-08-01T21:28:35;19.10;99.90
19652;DHT22;9974;52.146;14.668;2022-08-01T21:31:02;19.00;99.90
19652;DHT22;9974;52.146;14.668;2022-08-01T21:33:29;19.00;99.90
19652;DHT22;9974;52.146;14.668;2022-08-01T21:35:56;19.00;99.90
19652;DHT22;9974;52.146;14.668;2022-08-01T21:38:24;19.40;99.90
19652;DHT22;9974;52.146;14.668;2022-08-01T21:40:51;18.90;99.90
19652;DHT22;9974;52.146;14.668;2022-08-01T21:43:20;19.00;99.90
19652;DHT22;9974;52.146;14.668;2022-08-01T21:45:47;18.90;99.90
19652;DHT22;9974;52.146;14.668;2022-08-01T21:50:53;19.10;99.90
19652;DHT22;9974;52.146;14.668;2022-08-01T21:53:24;18.80;99.90
19652;DHT22;9974;52.146;14.668;2022-08-01T21:56:06;19.20;99.90
19652;DHT22;9974;52.146;14.668;2022-08-01T21:58:56;18.90;99.90
19652;DHT22;9974;52.146;14.668;2022-08-01T22:01:56;18.90;99.90
19652;DHT22;9974;52.146;14.668;2022-08-01T22:04:41;18.70;99.90
19652;DHT22;9974;52.146;14.668;2022-08-01T22:07:13;18.90;99.90
19652;DHT22;9974;52.146;14.668;2022-08-01T22:09:44;18.90;99.90
19652;DHT22;9974;52.146;14.668;2022-08-01T22:12:12;18.30;99.90
19652;DHT22;9974;52.146;14.668;2022-08-01T22:14:41;18.80;99.90
19652;DHT22;9974;52.146;14.668;2022-08-01T22:17:19;18.30;99.90
19652;DHT22;9974;52.146;14.668;2022-08-01T22:19:49;18.20;99.90
19652;DHT22;9974;52.146;14.668;2022-08-01T22:22:20;18.60;99.90
19652;DHT22;9974;52.146;14.668;2022-08-01T22:24:50;18.40;99.90
19652;DHT22;9974;52.146;14.668;2022-08-01T22:27:16;18.40;99.90
19652;DHT22;9974;52.146;14.668;2022-08-01T22:30:02;18.40;99.90
19652;DHT22;9974;52.146;14.668;2022-08-01T22:32:34;18.30;99.90
19652;DHT22;9974;52.146;14.668;2022-08-01T22:35:03;17.90;99.90
19652;DHT22;9974;52.146;14.668;2022-08-01T22:39:58;17.00;99.90
19652;DHT22;9974;52.146;14.668;2022-08-01T22:42:37;18.20;99.90
19652;DHT22;9974;52.146;14.668;2022-08-01T22:45:41;18.60;99.90
19652;DHT22;9974;52.146;14.668;2022-08-01T22:48:19;18.00;99.90
19652;DHT22;9974;52.146;14.668;2022-08-01T22:51:00;18.80;99.90
19652;DHT22;9974;52.146;14.668;2022-08-01T22:53:50;18.10;99.90
19652;DHT22;9974;52.146;14.668;2022-08-01T22:56:19;18.30;99.90
19652;DHT22;9974;52.146;14.668;2022-08-01T22:58:47;18.10;99.90
19652;DHT22;9974;52.146;14.668;2022-08-01T23:01:20;18.20;99.90
19652;DHT22;9974;52.146;14.668;2022-08-01T23:03:56;17.90;99.90
19652;DHT22;9974;52.146;14.668;2022-08-01T23:06:29;17.60;99.90
19652;DHT22;9974;52.146;14.668;2022-08-01T23:09:02;17.80;99.90
19652;DHT22;9974;52.146;14.668;2022-08-01T23:11:28;17.70;99.90
19652;DHT22;9974;52.146;14.668;2022-08-01T23:13:54;17.40;99.90
19652;DHT22;9974;52.146;14.668;2022-08-01T23:16:24;18.10;99.90
19652;DHT22;9974;52.146;14.668;2022-08-01T23:18:52;17.90;99.90
19652;DHT22;9974;52.146;14.668;2022-08-01T23:23:46;17.80;99.90
19652;DHT22;9974;52.146;14.668;2022-08-01T23:26:12;17.50;99.90
19652;DHT22;9974;52.146;14.668;2022-08-01T23:28:40;17.90;99.90
